createdAt,value
2018-07-17T00:02:14.947Z,16.62
2018-07-17T00:04:44.396Z,16.64
2018-07-17T00:07:13.896Z,16.65
2018-07-17T00:09:44.303Z,16.64
2018-07-17T00:12:13.658Z,16.63
2018-07-17T00:14:43.019Z,16.60
2018-07-17T00:17:13.049Z,16.56
2018-07-17T00:19:43.298Z,16.52
2018-07-17T00:22:13.085Z,16.46
2018-07-17T00:24:43.580Z,16.45
2018-07-17T00:27:13.206Z,16.38
2018-07-17T00:29:43.188Z,16.29
2018-07-17T00:32:13.359Z,16.23
2018-07-17T00:34:43.141Z,16.18
2018-07-17T00:37:13.208Z,16.12
2018-07-17T00:39:43.360Z,16.10
2018-07-17T00:42:13.234Z,16.04
2018-07-17T00:44:43.262Z,16.09
2018-07-17T00:47:13.318Z,16.06
2018-07-17T00:49:43.418Z,16.14
2018-07-17T00:52:13.273Z,16.10
2018-07-17T00:54:43.434Z,16.08
2018-07-17T00:57:13.463Z,16.00
2018-07-17T00:59:43.942Z,16.07
2018-07-17T01:02:18.798Z,16.07
2018-07-17T01:04:53.454Z,16.07
2018-07-17T01:07:27.893Z,16.06
2018-07-17T01:10:02.583Z,16.06
2018-07-17T01:12:31.395Z,15.98
2018-07-17T01:15:09.919Z,15.91
2018-07-17T01:17:43.803Z,15.90
2018-07-17T01:20:13.981Z,15.80
2018-07-17T01:22:43.653Z,15.81
2018-07-17T01:25:13.655Z,15.82
2018-07-17T01:27:43.590Z,15.75
2018-07-17T01:30:13.713Z,15.76
2018-07-17T01:32:43.775Z,15.77
2018-07-17T01:35:13.836Z,15.73
2018-07-17T01:37:43.514Z,15.72
2018-07-17T01:40:14.706Z,15.62
2018-07-17T01:42:44.209Z,15.70
2018-07-17T01:45:13.784Z,15.66
2018-07-17T01:47:43.840Z,15.70
2018-07-17T01:50:15.815Z,15.73
2018-07-17T01:52:45.358Z,15.70
2018-07-17T01:55:14.808Z,15.63
2018-07-17T01:57:44.311Z,15.62
2018-07-17T02:00:13.952Z,15.61
2018-07-17T02:02:44.005Z,15.63
2018-07-17T02:05:14.016Z,15.63
2018-07-17T02:07:43.995Z,15.61
2018-07-17T02:10:14.059Z,15.52
2018-07-17T02:12:44.004Z,15.50
2018-07-17T02:15:14.106Z,15.51
2018-07-17T02:17:44.212Z,15.47
2018-07-17T02:20:14.074Z,15.44
2018-07-17T02:22:44.165Z,15.41
2018-07-17T02:25:14.262Z,15.39
2018-07-17T02:27:46.306Z,15.36
2018-07-17T02:30:15.777Z,15.34
2018-07-17T02:32:45.473Z,15.33
2018-07-17T02:35:14.905Z,15.33
2018-07-17T02:37:44.425Z,15.36
2018-07-17T02:40:14.297Z,15.35
2018-07-17T02:42:44.251Z,15.31
2018-07-17T02:45:14.337Z,15.34
2018-07-17T02:47:44.149Z,15.24
2018-07-17T02:50:14.403Z,15.24
2018-07-17T02:52:44.252Z,15.27
2018-07-17T02:55:14.397Z,15.22
2018-07-17T02:57:44.395Z,15.31
2018-07-17T03:00:14.377Z,15.28
2018-07-17T03:02:44.371Z,15.33
2018-07-17T03:05:14.587Z,15.33
2018-07-17T03:07:44.367Z,15.28
2018-07-17T03:10:14.345Z,15.29
2018-07-17T03:12:44.629Z,15.26
2018-07-17T03:15:14.402Z,15.25
2018-07-17T03:17:44.410Z,15.20
2018-07-17T03:20:14.431Z,15.15
2018-07-17T03:22:44.471Z,15.12
2018-07-17T03:25:14.636Z,15.07
2018-07-17T03:27:44.439Z,14.99
2018-07-17T03:30:14.521Z,15.06
2018-07-17T03:32:44.557Z,15.05
2018-07-17T03:35:14.473Z,15.02
2018-07-17T03:37:44.687Z,15.04
2018-07-17T03:40:14.465Z,15.02
2018-07-17T03:42:44.714Z,15.00
2018-07-17T03:45:14.687Z,14.97
2018-07-17T03:47:44.860Z,14.93
2018-07-17T03:50:14.675Z,14.85
2018-07-17T03:52:44.725Z,14.84
2018-07-17T03:55:14.793Z,14.83
2018-07-17T03:57:44.851Z,14.82
2018-07-17T04:00:14.801Z,14.80
2018-07-17T04:02:44.836Z,14.70
2018-07-17T04:05:14.868Z,14.63
2018-07-17T04:07:45.024Z,14.71
2018-07-17T04:10:15.168Z,14.71
2018-07-17T04:12:45.154Z,14.72
2018-07-17T04:15:14.868Z,14.76
2018-07-17T04:17:44.796Z,14.80
2018-07-17T04:20:15.673Z,14.80
2018-07-17T04:22:45.189Z,14.81
2018-07-17T04:25:14.912Z,14.82
2018-07-17T04:27:45.094Z,14.79
2018-07-17T04:30:15.003Z,14.77
2018-07-17T04:32:45.002Z,14.78
2018-07-17T04:35:15.120Z,14.79
2018-07-17T04:37:45.086Z,14.81
2018-07-17T04:40:15.071Z,14.85
2018-07-17T04:42:44.932Z,14.90
2018-07-17T04:45:15.061Z,14.98
2018-07-17T04:47:45.022Z,15.05
2018-07-17T04:50:14.982Z,15.14
2018-07-17T04:52:45.143Z,15.25
2018-07-17T04:55:15.092Z,15.23
2018-07-17T04:57:45.221Z,15.34
2018-07-17T05:00:15.265Z,15.41
2018-07-17T05:02:45.246Z,15.51
2018-07-17T05:05:15.283Z,15.58
2018-07-17T05:07:45.144Z,15.62
2018-07-17T05:10:16.914Z,15.67
2018-07-17T05:12:46.180Z,15.72
2018-07-17T05:15:16.114Z,15.80
2018-07-17T05:17:46.225Z,15.78
2018-07-17T05:20:15.927Z,15.82
2018-07-17T05:22:46.044Z,15.87
2018-07-17T05:25:15.883Z,15.95
2018-07-17T05:27:45.280Z,16.05
2018-07-17T05:30:16.180Z,16.15
2018-07-17T05:32:46.196Z,16.26
2018-07-17T05:35:15.790Z,16.25
2018-07-17T05:37:46.107Z,16.28
2018-07-17T05:40:16.263Z,16.33
2018-07-17T05:42:47.314Z,16.38
2018-07-17T05:45:17.343Z,16.41
2018-07-17T05:47:47.547Z,16.47
2018-07-17T05:50:17.832Z,16.53
2018-07-17T05:52:47.214Z,16.58
2018-07-17T05:55:17.353Z,16.62
2018-07-17T05:57:47.650Z,16.68
2018-07-17T06:00:17.464Z,16.75
2018-07-17T06:02:46.814Z,16.81
2018-07-17T06:05:16.308Z,16.86
2018-07-17T06:07:45.688Z,16.92
2018-07-17T06:10:15.510Z,17.00
2018-07-17T06:12:45.448Z,17.06
2018-07-17T06:15:15.472Z,17.11
2018-07-17T06:17:45.499Z,17.21
2018-07-17T06:20:15.515Z,17.33
2018-07-17T06:22:45.452Z,17.43
2018-07-17T06:25:15.581Z,17.55
2018-07-17T06:27:45.552Z,17.65
2018-07-17T06:30:15.559Z,17.72
2018-07-17T06:32:45.665Z,17.81
2018-07-17T06:35:15.745Z,17.92
2018-07-17T06:37:45.653Z,17.98
2018-07-17T06:40:15.733Z,18.05
2018-07-17T06:42:45.627Z,18.18
2018-07-17T06:45:15.973Z,18.24
2018-07-17T06:47:45.763Z,18.32
2018-07-17T06:50:15.867Z,18.37
2018-07-17T06:52:45.810Z,18.44
2018-07-17T06:55:15.779Z,18.53
2018-07-17T06:57:45.821Z,18.58
2018-07-17T07:00:15.740Z,18.68
2018-07-17T07:02:47.497Z,18.93
2018-07-17T07:05:16.931Z,19.15
2018-07-17T07:07:46.316Z,19.31
2018-07-17T07:10:16.302Z,19.42
2018-07-17T07:12:45.948Z,19.50
2018-07-17T07:15:15.955Z,19.54
2018-07-17T07:17:45.944Z,19.65
2018-07-17T07:20:15.986Z,19.74
2018-07-17T07:22:46.150Z,19.79
2018-07-17T07:25:16.006Z,19.85
2018-07-17T07:27:46.039Z,19.92
2018-07-17T07:30:16.082Z,20.03
2018-07-17T07:32:46.118Z,20.17
2018-07-17T07:35:16.390Z,20.28
2018-07-17T07:37:46.127Z,20.44
2018-07-17T07:40:16.144Z,20.55
2018-07-17T07:42:46.205Z,20.64
2018-07-17T07:45:16.226Z,20.73
2018-07-17T07:47:46.428Z,20.86
2018-07-17T07:50:16.276Z,20.94
2018-07-17T07:52:45.717Z,21.02
2018-07-17T07:55:14.960Z,21.15
2018-07-17T07:57:44.250Z,21.38
2018-07-17T08:00:13.534Z,21.50
2018-07-17T08:02:43.003Z,21.57
2018-07-17T08:05:12.839Z,21.64
2018-07-17T08:07:42.155Z,21.73
2018-07-17T08:10:11.469Z,21.81
2018-07-17T08:12:40.811Z,21.94
2018-07-17T08:15:10.299Z,22.03
2018-07-17T08:17:39.666Z,22.14
2018-07-17T08:20:09.177Z,22.22
2018-07-17T08:22:38.533Z,22.24
2018-07-17T08:25:07.809Z,22.31
2018-07-17T08:27:37.136Z,22.44
2018-07-17T08:30:06.568Z,22.55
2018-07-17T08:32:35.898Z,22.59
2018-07-17T08:35:05.229Z,22.69
2018-07-17T08:37:34.555Z,22.75
2018-07-17T08:40:03.941Z,22.82
2018-07-17T08:42:33.246Z,22.90
2018-07-17T08:45:02.549Z,23.00
2018-07-17T08:47:31.791Z,23.11
2018-07-17T08:50:01.131Z,23.30
2018-07-17T08:52:30.461Z,23.37
2018-07-17T08:54:59.940Z,23.39
2018-07-17T08:57:29.292Z,23.33
2018-07-17T08:59:58.785Z,23.40
2018-07-17T09:02:28.162Z,23.48
2018-07-17T09:04:57.533Z,23.62
2018-07-17T09:07:26.838Z,23.71
2018-07-17T09:09:56.205Z,23.85
2018-07-17T09:12:25.554Z,23.98
2018-07-17T09:14:55.113Z,23.91
2018-07-17T09:17:24.516Z,23.94
2018-07-17T09:19:53.825Z,24.04
2018-07-17T09:22:24.567Z,23.92
2018-07-17T09:24:54.046Z,23.81
2018-07-17T09:27:23.377Z,23.85
2018-07-17T09:29:52.665Z,23.89
2018-07-17T09:32:21.981Z,23.94
2018-07-17T09:34:51.209Z,23.98
2018-07-17T09:37:20.465Z,24.12
2018-07-17T09:39:49.768Z,24.23
2018-07-17T09:42:19.193Z,24.20
2018-07-17T09:44:48.515Z,24.01
2018-07-17T09:47:17.830Z,23.97
2018-07-17T09:49:47.149Z,24.14
2018-07-17T09:52:17.337Z,24.31
2018-07-17T09:54:47.624Z,24.50
2018-07-17T09:57:17.400Z,24.70
2018-07-17T09:59:47.404Z,24.80
2018-07-17T10:02:22.649Z,24.95
2018-07-17T10:04:52.655Z,24.97
2018-07-17T10:07:22.786Z,25.03
2018-07-17T10:09:52.046Z,25.09
2018-07-17T10:12:21.677Z,25.19
2018-07-17T10:14:51.052Z,25.25
2018-07-17T10:17:20.471Z,25.34
2018-07-17T10:19:49.800Z,25.42
2018-07-17T10:22:19.179Z,25.46
2018-07-17T10:24:48.545Z,25.45
2018-07-17T10:27:18.067Z,25.37
2018-07-17T10:29:47.851Z,25.42
2018-07-17T10:32:18.215Z,25.44
2018-07-17T10:34:48.105Z,25.34
2018-07-17T10:37:18.058Z,25.31
2018-07-17T10:39:48.117Z,25.41
2018-07-17T10:42:19.682Z,25.50
2018-07-17T10:44:54.765Z,25.64
2018-07-17T10:47:24.338Z,25.72
2018-07-17T10:49:53.692Z,25.84
2018-07-17T10:52:23.108Z,25.92
2018-07-17T10:54:52.484Z,25.96
2018-07-17T10:57:21.853Z,25.91
2018-07-17T10:59:51.199Z,25.92
2018-07-17T11:02:20.614Z,26.00
2018-07-17T11:04:49.989Z,26.04
2018-07-17T11:07:19.289Z,26.16
2018-07-17T11:09:48.854Z,26.25
2018-07-17T11:12:18.324Z,26.30
2018-07-17T11:14:48.368Z,26.24
2018-07-17T11:17:18.518Z,26.18
2018-07-17T11:19:48.487Z,26.25
2018-07-17T11:22:18.596Z,26.40
2018-07-17T11:24:48.526Z,26.49
2018-07-17T11:27:18.604Z,26.44
2018-07-17T11:29:48.576Z,26.43
2018-07-17T11:32:18.663Z,26.42
2018-07-17T11:34:48.668Z,26.47
2018-07-17T11:37:18.584Z,26.55
2018-07-17T11:39:48.702Z,26.66
2018-07-17T11:42:19.789Z,26.41
2018-07-17T11:44:49.149Z,26.25
2018-07-17T11:47:18.669Z,26.31
2018-07-17T11:49:48.890Z,26.47
2018-07-17T11:52:18.739Z,26.69
2018-07-17T11:54:48.832Z,26.85
2018-07-17T11:57:18.781Z,26.93
2018-07-17T11:59:48.918Z,26.96
2018-07-17T12:02:18.886Z,27.04
2018-07-17T12:04:48.852Z,26.84
2018-07-17T12:07:18.812Z,26.85
2018-07-17T12:09:49.023Z,27.01
2018-07-17T12:12:18.822Z,27.17
2018-07-17T12:14:49.043Z,27.12
2018-07-17T12:17:18.916Z,27.28
2018-07-17T12:19:49.170Z,27.39
2018-07-17T12:22:18.927Z,27.53
2018-07-17T12:24:48.954Z,27.62
2018-07-17T12:27:19.045Z,27.60
2018-07-17T12:29:49.057Z,27.61
2018-07-17T12:32:19.030Z,27.58
2018-07-17T12:34:49.250Z,27.66
2018-07-17T12:37:19.096Z,27.84
2018-07-17T12:39:49.191Z,27.63
2018-07-17T12:42:19.139Z,27.32
2018-07-17T12:44:49.531Z,27.09
2018-07-17T12:47:19.238Z,27.28
2018-07-17T12:49:49.246Z,27.47
2018-07-17T12:52:19.420Z,27.80
2018-07-17T12:54:49.133Z,28.00
2018-07-17T12:57:19.258Z,28.08
2018-07-17T12:59:48.548Z,27.93
2018-07-17T13:02:17.919Z,27.67
2018-07-17T13:04:47.644Z,27.60
2018-07-17T13:07:17.066Z,27.83
2018-07-17T13:09:46.437Z,27.93
2018-07-17T13:12:15.796Z,28.06
2018-07-17T13:14:45.253Z,28.40
2018-07-17T13:17:14.834Z,28.69
2018-07-17T13:19:44.526Z,28.75
2018-07-17T13:22:13.814Z,28.64
2018-07-17T13:24:43.648Z,28.00
2018-07-17T13:27:13.004Z,27.59
2018-07-17T13:29:42.321Z,27.73
2018-07-17T13:32:11.640Z,27.96
2018-07-17T13:34:40.918Z,28.35
2018-07-17T13:37:10.210Z,28.80
2018-07-17T13:39:39.531Z,28.75
2018-07-17T13:42:08.827Z,28.58
2018-07-17T13:44:38.720Z,28.55
2018-07-17T13:47:08.061Z,28.89
2018-07-17T13:49:37.322Z,29.13
2018-07-17T13:52:06.752Z,29.01
2018-07-17T13:54:36.011Z,28.91
2018-07-17T13:57:05.447Z,28.90
2018-07-17T13:59:34.742Z,28.45
2018-07-17T14:02:04.544Z,28.13
2018-07-17T14:04:33.865Z,27.62
2018-07-17T14:07:03.276Z,27.21
2018-07-17T14:09:32.496Z,26.79
2018-07-17T14:12:01.851Z,26.61
2018-07-17T14:14:31.145Z,26.46
2018-07-17T14:17:00.448Z,26.25
2018-07-17T14:19:29.792Z,26.09
2018-07-17T14:21:59.072Z,26.05
2018-07-17T14:24:28.406Z,26.09
2018-07-17T14:26:57.753Z,26.12
2018-07-17T14:29:27.089Z,26.15
2018-07-17T14:31:56.453Z,26.26
2018-07-17T14:34:25.813Z,26.32
2018-07-17T14:36:55.181Z,26.43
2018-07-17T14:39:24.531Z,26.60
2018-07-17T14:41:53.861Z,26.80
2018-07-17T14:44:23.429Z,26.99
2018-07-17T14:46:53.727Z,26.98
2018-07-17T14:49:23.194Z,26.82
2018-07-17T14:51:52.581Z,26.51
2018-07-17T14:54:22.014Z,26.12
2018-07-17T14:56:51.415Z,25.82
2018-07-17T14:59:20.810Z,25.79
2018-07-17T15:01:50.834Z,26.77
2018-07-17T15:04:21.022Z,27.08
2018-07-17T15:06:50.963Z,27.15
2018-07-17T15:09:20.864Z,27.37
2018-07-17T15:11:50.853Z,26.85
2018-07-17T15:14:20.995Z,26.50
2018-07-17T15:16:50.805Z,26.81
2018-07-17T15:19:21.127Z,27.56
2018-07-17T15:21:50.831Z,28.32
2018-07-17T15:24:20.898Z,28.75
2018-07-17T15:26:50.876Z,29.18
2018-07-17T15:29:20.866Z,29.13
2018-07-17T15:31:51.225Z,29.50
2018-07-17T15:34:21.003Z,29.48
2018-07-17T15:36:50.247Z,29.69
2018-07-17T15:39:19.568Z,29.66
2018-07-17T15:41:49.790Z,29.74
2018-07-17T15:44:19.699Z,29.40
2018-07-17T15:46:49.037Z,29.50
2018-07-17T15:49:18.423Z,29.42
2018-07-17T15:51:47.892Z,29.22
2018-07-17T15:54:17.252Z,29.00
2018-07-17T15:56:46.614Z,28.99
2018-07-17T15:59:16.298Z,29.31
2018-07-17T16:01:45.729Z,29.14
2018-07-17T16:04:15.084Z,29.25
2018-07-17T16:06:44.454Z,29.43
2018-07-17T16:09:13.889Z,29.64
2018-07-17T16:11:43.272Z,29.37
2018-07-17T16:14:12.925Z,29.41
2018-07-17T16:16:42.118Z,29.32
2018-07-17T16:19:11.577Z,28.82
2018-07-17T16:21:41.094Z,28.51
2018-07-17T16:24:10.585Z,28.28
2018-07-17T16:26:40.428Z,27.92
2018-07-17T16:29:09.915Z,27.76
2018-07-17T16:31:39.513Z,27.62
2018-07-17T16:34:08.806Z,27.33
2018-07-17T16:36:38.189Z,27.02
2018-07-17T16:39:08.311Z,26.84
2018-07-17T16:41:37.589Z,26.57
2018-07-17T16:44:06.867Z,26.32
2018-07-17T16:46:36.186Z,26.25
2018-07-17T16:49:05.517Z,26.16
2018-07-17T16:51:35.028Z,26.06
2018-07-17T16:54:04.402Z,25.98
2018-07-17T16:56:33.665Z,25.90
2018-07-17T16:59:03.144Z,25.81
2018-07-17T17:01:32.489Z,25.77
2018-07-17T17:04:02.007Z,25.65
2018-07-17T17:06:31.573Z,25.59
2018-07-17T17:09:01.021Z,25.51
2018-07-17T17:11:30.284Z,25.38
2018-07-17T17:13:59.723Z,25.36
2018-07-17T17:16:29.105Z,25.27
2018-07-17T17:18:58.499Z,25.14
2018-07-17T17:21:27.816Z,25.06
2018-07-17T17:23:57.285Z,25.02
2018-07-17T17:26:26.537Z,24.98
2018-07-17T17:28:55.941Z,24.96
2018-07-17T17:31:25.353Z,24.95
2018-07-17T17:33:54.656Z,24.89
2018-07-17T17:36:24.059Z,24.86
2018-07-17T17:38:53.370Z,24.78
2018-07-17T17:41:22.763Z,24.66
2018-07-17T17:43:52.716Z,24.62
2018-07-17T17:56:13.769Z,24.56
2018-07-17T17:58:43.239Z,24.28
2018-07-17T18:01:12.502Z,24.17
2018-07-17T18:03:41.820Z,24.09
2018-07-17T18:06:11.184Z,23.91
2018-07-17T18:08:40.614Z,23.83
2018-07-17T18:11:10.002Z,23.72
2018-07-17T18:13:39.415Z,23.68
2018-07-17T18:16:08.789Z,23.66
2018-07-17T18:18:38.177Z,23.54
2018-07-17T18:21:07.818Z,23.43
2018-07-17T18:23:37.167Z,23.30
2018-07-17T18:26:06.500Z,23.25
2018-07-17T18:28:35.924Z,23.19
2018-07-17T18:31:05.320Z,23.09
2018-07-17T18:33:34.744Z,23.05
2018-07-17T18:36:04.116Z,23.01
2018-07-17T18:38:33.531Z,22.97
2018-07-17T18:41:02.921Z,22.81
2018-07-17T18:43:32.341Z,22.73
2018-07-17T18:46:01.679Z,22.68
2018-07-17T18:48:31.024Z,22.57
2018-07-17T18:51:00.439Z,22.53
2018-07-17T18:53:29.793Z,22.46
2018-07-17T18:55:59.166Z,22.36
2018-07-17T18:58:28.594Z,22.26
2018-07-17T19:00:58.091Z,22.14
2018-07-17T19:03:27.483Z,21.90
2018-07-17T19:05:56.814Z,21.71
2018-07-17T19:08:26.161Z,21.57
2018-07-17T19:10:55.683Z,21.48
2018-07-17T19:13:25.163Z,21.43
2018-07-17T19:15:54.893Z,21.39
2018-07-17T19:18:24.932Z,21.31
2018-07-17T19:20:54.939Z,21.27
2018-07-17T19:23:25.327Z,21.21
2018-07-17T19:25:55.399Z,21.19
2018-07-17T19:28:25.102Z,21.17
2018-07-17T19:30:55.164Z,21.10
2018-07-17T19:33:25.121Z,21.02
2018-07-17T19:35:55.042Z,20.98
2018-07-17T19:38:25.202Z,20.90
2018-07-17T19:40:55.338Z,20.83
2018-07-17T19:43:25.139Z,20.77
2018-07-17T19:45:55.242Z,20.73
2018-07-17T19:48:25.361Z,20.69
2018-07-17T19:50:55.199Z,20.60
2018-07-17T19:53:25.441Z,20.55
2018-07-17T19:55:55.257Z,20.53
2018-07-17T19:58:25.316Z,20.47
2018-07-17T20:00:55.350Z,20.43
2018-07-17T20:03:25.367Z,20.37
2018-07-17T20:05:55.695Z,20.31
2018-07-17T20:08:25.403Z,20.28
2018-07-17T20:10:55.713Z,20.24
2018-07-17T20:13:25.401Z,20.20
2018-07-17T20:15:55.390Z,20.14
2018-07-17T20:18:25.396Z,20.11
2018-07-17T20:20:55.476Z,20.04
2018-07-17T20:23:25.524Z,19.99
2018-07-17T20:25:55.454Z,19.93
2018-07-17T20:28:25.475Z,19.91
2018-07-17T20:30:55.618Z,19.87
2018-07-17T20:33:25.510Z,19.84
2018-07-17T20:35:55.464Z,19.83
2018-07-17T20:38:25.543Z,19.75
2018-07-17T20:40:55.659Z,19.71
2018-07-17T20:43:25.535Z,19.66
2018-07-17T20:45:55.823Z,19.64
2018-07-17T20:48:25.523Z,19.61
2018-07-17T20:50:55.666Z,19.60
2018-07-17T20:53:25.675Z,19.54
2018-07-17T20:55:55.836Z,19.50
2018-07-17T20:58:25.775Z,19.50
2018-07-17T21:00:56.402Z,19.48
2018-07-17T21:03:25.761Z,19.48
2018-07-17T21:05:55.841Z,19.43
2018-07-17T21:08:25.776Z,19.40
2018-07-17T21:10:57.199Z,19.37
2018-07-17T21:13:26.637Z,19.34
2018-07-17T21:15:55.975Z,19.34
2018-07-17T21:18:25.898Z,19.30
2018-07-17T21:20:55.806Z,19.23
2018-07-17T21:23:25.769Z,19.20
2018-07-17T21:25:55.832Z,19.18
2018-07-17T21:28:26.002Z,19.16
2018-07-17T21:30:55.841Z,19.16
2018-07-17T21:33:26.000Z,19.14
2018-07-17T21:35:56.027Z,19.09
2018-07-17T21:38:26.041Z,19.11
2018-07-17T21:40:56.958Z,19.13
2018-07-17T21:43:26.299Z,19.12
2018-07-17T21:45:56.047Z,19.12
2018-07-17T21:48:25.980Z,19.12
2018-07-17T21:50:56.162Z,19.06
2018-07-17T21:53:26.135Z,19.05
2018-07-17T21:55:56.143Z,19.01
2018-07-17T21:58:26.162Z,19.04
2018-07-17T22:00:57.834Z,19.02
2018-07-17T22:03:27.110Z,19.01
2018-07-17T22:05:56.439Z,19.03
2018-07-17T22:08:26.177Z,19.03
2018-07-17T22:10:56.250Z,19.03
2018-07-17T22:13:26.303Z,18.99
2018-07-17T22:15:56.346Z,18.96
2018-07-17T22:18:26.280Z,18.93
2018-07-17T22:20:56.343Z,18.86
2018-07-17T22:23:26.321Z,18.79
2018-07-17T22:25:56.472Z,18.77
2018-07-17T22:28:26.335Z,18.77
2018-07-17T22:30:56.475Z,18.77
2018-07-17T22:33:26.592Z,18.74
2018-07-17T22:35:56.488Z,18.73
2018-07-17T22:38:26.533Z,18.71
2018-07-17T22:40:56.575Z,18.68
2018-07-17T22:43:26.568Z,18.67
2018-07-17T22:45:56.595Z,18.65
2018-07-17T22:48:26.506Z,18.63
2018-07-17T22:50:56.736Z,18.60
2018-07-17T22:53:26.619Z,18.58
2018-07-17T22:55:56.752Z,18.56
2018-07-17T22:58:26.802Z,18.55
2018-07-17T23:00:56.732Z,18.54
2018-07-17T23:03:26.754Z,18.50
2018-07-17T23:05:56.852Z,18.47
2018-07-17T23:08:26.877Z,18.43
2018-07-17T23:10:56.806Z,18.41
2018-07-17T23:13:26.779Z,18.42
2018-07-17T23:15:56.072Z,18.42
2018-07-17T23:18:25.386Z,18.45
2018-07-17T23:20:54.753Z,18.44
2018-07-17T23:23:24.003Z,18.43
2018-07-17T23:25:53.279Z,18.44
2018-07-17T23:28:22.562Z,18.49
2018-07-17T23:30:51.831Z,18.50
2018-07-17T23:33:21.135Z,18.52
2018-07-17T23:35:50.401Z,18.53
2018-07-17T23:38:19.657Z,18.53
2018-07-17T23:40:48.969Z,18.56
2018-07-17T23:43:18.275Z,18.56
2018-07-17T23:45:47.742Z,18.57
2018-07-17T23:48:17.187Z,18.59
2018-07-17T23:50:46.721Z,18.60
2018-07-17T23:53:16.161Z,18.57
2018-07-17T23:55:45.628Z,18.58
2018-07-17T23:58:15.025Z,18.59
